^^
Datos históricos de la estación: Murcia-Puente Tocinos
Diario Informe para Julio 3, 2019 Unidades:  Ambas    Ingés   Métrico
Diario Semanal Mensual Anual
  Máxima: Mínima: Promedio:
Temperatura: 88.9 °F /  31.6 °C 75.4 °F /  24.1 °C 81.3 °F /  27.4 °C
Punto de rocio: 71.8 °F /  22.1 °C 62.4 °F /  16.9 °C 68.4 °F /  20.2 °C
Humedad: 84% 44.2% 67%
Velocidad viento: 11.4mph /  18.4km/h - 5.2mph /  8.4km/h
Racha viento: 20mph /  32.2km/h - -
Viento- - ENE
Presión: 29.9 in /  1014.0 hPa 29.8 in /  1010.1 hPa -
Precipitación: 0 in /  0.0 mm    
 
 
Tabla de datos para Julio 3, 2019
Hora Temperatura Punto de rocio Presión Viento Velocidad viento Racha viento Humedad Intensidad lluvia(por hora) Nubes
00:04 78.6 °F /  25.9 °C 71.1 °F /  21.7 °C 29.9in /  1013.5hPa NE 5.2mph /  8.4km/h 8.5mph /  13.7km/h 77.5% 0in /  0.0mm
00:09 78.4 °F /  25.8 °C 71.1 °F /  21.7 °C 29.9in /  1013.5hPa NE 5.5mph /  8.8km/h 9mph /  14.5km/h 78.3% 0in /  0.0mm
00:14 78.3 °F /  25.7 °C 71.4 °F /  21.9 °C 29.9in /  1013.5hPa NNE 5.9mph /  9.5km/h 10.4mph /  16.7km/h 79.4% 0in /  0.0mm
00:19 78.1 °F /  25.6 °C 71.4 °F /  21.9 °C 29.9in /  1013.5hPa NE 6.1mph /  9.8km/h 11.5mph /  18.5km/h 80% 0in /  0.0mm
00:24 78.1 °F /  25.6 °C 71.8 °F /  22.1 °C 29.9in /  1013.5hPa NE 6.4mph /  10.3km/h 12mph /  19.3km/h 81% 0in /  0.0mm
00:29 77.7 °F /  25.4 °C 71.4 °F /  21.9 °C 29.9in /  1013.5hPa NE 6.3mph /  10.2km/h 10.4mph /  16.7km/h 81% 0in /  0.0mm
00:34 77.7 °F /  25.4 °C 71.4 °F /  21.9 °C 29.9in /  1013.6hPa NE 6.2mph /  10km/h 10mph /  16.1km/h 81% 0in /  0.0mm
00:39 77.7 °F /  25.4 °C 71.4 °F /  21.9 °C 29.9in /  1013.6hPa NE 6.2mph /  10km/h 9.7mph /  15.6km/h 81% 0in /  0.0mm
00:44 77.5 °F /  25.3 °C 71.2 °F /  21.8 °C 29.9in /  1013.6hPa NE 6.2mph /  10km/h 10mph /  16.1km/h 81% 0in /  0.0mm
00:49 77.5 °F /  25.3 °C 71.2 °F /  21.8 °C 29.9in /  1013.7hPa NE 6.1mph /  9.8km/h 9.2mph /  14.8km/h 81.2% 0in /  0.0mm
00:54 77.5 °F /  25.3 °C 71.6 °F /  22 °C 29.9in /  1013.7hPa NE 5.9mph /  9.5km/h 9.2mph /  14.8km/h 82% 0in /  0.0mm
00:59 77.4 °F /  25.2 °C 71.4 °F /  21.9 °C 29.9in /  1013.7hPa NE 5.9mph /  9.5km/h 10.4mph /  16.7km/h 82% 0in /  0.0mm
01:04 77.4 °F /  25.2 °C 71.4 °F /  21.9 °C 29.9in /  1013.7hPa NE 5.9mph /  9.5km/h 10mph /  16.1km/h 82% 0in /  0.0mm
01:09 77.4 °F /  25.2 °C 71.4 °F /  21.9 °C 29.9in /  1013.6hPa NE 6mph /  9.7km/h 10.7mph /  17.2km/h 82% 0in /  0.0mm
01:14 77.4 °F /  25.2 °C 71.4 °F /  21.9 °C 29.9in /  1013.6hPa NE 6.2mph /  10km/h 11mph /  17.7km/h 82% 0in /  0.0mm
01:19 77.4 °F /  25.2 °C 71.4 °F /  21.9 °C 29.9in /  1013.6hPa NE 5.9mph /  9.5km/h 10mph /  16.1km/h 82% 0in /  0.0mm
01:24 77.5 °F /  25.3 °C 71.6 °F /  22 °C 29.9in /  1013.6hPa NE 5.4mph /  8.7km/h 9mph /  14.5km/h 82% 0in /  0.0mm
01:29 77.4 °F /  25.2 °C 71.4 °F /  21.9 °C 29.9in /  1013.6hPa NE 5mph /  8.1km/h 7mph /  11.3km/h 82% 0in /  0.0mm
01:34 77.4 °F /  25.2 °C 71.4 °F /  21.9 °C 29.9in /  1013.6hPa NE 4.3mph /  6.9km/h 6mph /  9.7km/h 82% 0in /  0.0mm
01:39 77.4 °F /  25.2 °C 71.4 °F /  21.9 °C 29.9in /  1013.5hPa ENE 3.9mph /  6.3km/h 6mph /  9.7km/h 82% 0in /  0.0mm
01:44 77.5 °F /  25.3 °C 71.4 °F /  21.9 °C 29.9in /  1013.5hPa Este 3.1mph /  5km/h 5.9mph /  9.5km/h 81.5% 0in /  0.0mm
01:49 77.5 °F /  25.3 °C 71.2 °F /  21.8 °C 29.9in /  1013.5hPa ENE 3mph /  4.9km/h 6mph /  9.7km/h 81% 0in /  0.0mm
01:54 77.5 °F /  25.3 °C 71.2 °F /  21.8 °C 29.9in /  1013.4hPa NE 2.9mph /  4.7km/h 5.8mph /  9.3km/h 81% 0in /  0.0mm
01:59 77.5 °F /  25.3 °C 71.2 °F /  21.8 °C 29.9in /  1013.4hPa NE 3mph /  4.8km/h 6mph /  9.7km/h 81% 0in /  0.0mm
02:04 77.4 °F /  25.2 °C 71.1 °F /  21.7 °C 29.9in /  1013.4hPa NE 3.1mph /  5km/h 5mph /  8km/h 81% 0in /  0.0mm
02:09 77.4 °F /  25.2 °C 71.1 °F /  21.7 °C 29.9in /  1013.2hPa NE 3mph /  4.9km/h 5.2mph /  8.4km/h 81% 0in /  0.0mm
02:14 77.4 °F /  25.2 °C 71.1 °F /  21.7 °C 29.9in /  1013.2hPa NE 2.9mph /  4.7km/h 6.2mph /  10km/h 81% 0in /  0.0mm
02:19 77.4 °F /  25.2 °C 71.2 °F /  21.8 °C 29.9in /  1013.2hPa NE 3.4mph /  5.4km/h 8.1mph /  13km/h 81.7% 0in /  0.0mm
02:24 77.2 °F /  25.1 °C 71.2 °F /  21.8 °C 29.9in /  1013.1hPa NE 4.3mph /  6.9km/h 8mph /  12.9km/h 82% 0in /  0.0mm
02:29 77 °F /  25 °C 71.1 °F /  21.7 °C 29.9in /  1013.1hPa NE 4.2mph /  6.8km/h 7mph /  11.3km/h 82% 0in /  0.0mm
02:34 77 °F /  25 °C 71.1 °F /  21.7 °C 29.9in /  1013.1hPa NE 4mph /  6.5km/h 6mph /  9.7km/h 82% 0in /  0.0mm
02:39 76.8 °F /  24.9 °C 70.9 °F /  21.6 °C 29.9in /  1013.0hPa NE 3.7mph /  6km/h 6mph /  9.7km/h 82% 0in /  0.0mm
02:44 76.8 °F /  24.9 °C 70.9 °F /  21.6 °C 29.9in /  1013.0hPa NE 3.1mph /  5km/h 6mph /  9.7km/h 82% 0in /  0.0mm
02:49 76.8 °F /  24.9 °C 70.9 °F /  21.6 °C 29.9in /  1013.0hPa NE 2.9mph /  4.6km/h 5mph /  8km/h 82% 0in /  0.0mm
02:54 76.8 °F /  24.9 °C 70.9 °F /  21.6 °C 29.9in /  1012.9hPa North 2.4mph /  3.9km/h 4.6mph /  7.4km/h 82% 0in /  0.0mm
02:59 76.8 °F /  24.9 °C 70.9 °F /  21.6 °C 29.9in /  1012.9hPa North 2mph /  3.2km/h 5mph /  8km/h 82% 0in /  0.0mm
03:04 76.8 °F /  24.9 °C 70.9 °F /  21.6 °C 29.9in /  1012.9hPa NNE 1.4mph /  2.2km/h 4mph /  6.4km/h 82.1% 0in /  0.0mm
03:09 76.8 °F /  24.9 °C 71.2 °F /  21.8 °C 29.9in /  1012.8hPa NNE 1.6mph /  2.5km/h 4mph /  6.4km/h 83% 0in /  0.0mm
03:14 76.8 °F /  24.9 °C 71.2 °F /  21.8 °C 29.9in /  1012.8hPa NE 1.8mph /  2.9km/h 4.6mph /  7.4km/h 83% 0in /  0.0mm
03:19 76.8 °F /  24.9 °C 71.2 °F /  21.8 °C 29.9in /  1012.8hPa NE 1.8mph /  2.9km/h 5mph /  8km/h 83% 0in /  0.0mm
03:24 76.8 °F /  24.9 °C 71.2 °F /  21.8 °C 29.9in /  1012.8hPa NNE 1.8mph /  2.9km/h 4mph /  6.4km/h 83% 0in /  0.0mm
03:29 76.8 °F /  24.9 °C 71.2 °F /  21.8 °C 29.9in /  1012.8hPa NNE 1.7mph /  2.7km/h 3mph /  4.8km/h 83% 0in /  0.0mm
03:34 76.8 °F /  24.9 °C 71.2 °F /  21.8 °C 29.9in /  1012.8hPa NNE 1.4mph /  2.2km/h   83% 0in /  0.0mm
03:39 76.8 °F /  24.9 °C 71.2 °F /  21.8 °C 29.9in /  1012.8hPa NNE 0.9mph /  1.5km/h   83.1% 0in /  0.0mm
03:44 76.8 °F /  24.9 °C 71.6 °F /  22 °C 29.9in /  1012.8hPa Calm     83.8% 0in /  0.0mm
03:49 76.8 °F /  24.9 °C 71.4 °F /  21.9 °C 29.9in /  1012.8hPa Calm   3.6mph /  5.8km/h 83.3% 0in /  0.0mm
03:54 76.8 °F /  24.9 °C 71.2 °F /  21.8 °C 29.9in /  1012.8hPa Calm   4mph /  6.4km/h 83% 0in /  0.0mm
03:59 76.8 °F /  24.9 °C 71.2 °F /  21.8 °C 29.9in /  1012.8hPa Calm   1.2mph /  1.9km/h 83% 0in /  0.0mm
04:04 76.8 °F /  24.9 °C 71.2 °F /  21.8 °C 29.9in /  1012.8hPa Calm     83% 0in /  0.0mm
04:09 76.8 °F /  24.9 °C 71.2 °F /  21.8 °C 29.9in /  1012.7hPa Calm   1.8mph /  2.9km/h 83% 0in /  0.0mm
04:14 76.8 °F /  24.9 °C 71.2 °F /  21.8 °C 29.9in /  1012.7hPa Calm   2.4mph /  3.9km/h 83% 0in /  0.0mm
04:19 76.8 °F /  24.9 °C 71.2 °F /  21.8 °C 29.9in /  1012.7hPa Calm   2mph /  3.2km/h 83% 0in /  0.0mm
04:24 76.8 °F /  24.9 °C 71.2 °F /  21.8 °C 29.9in /  1012.7hPa Calm     83% 0in /  0.0mm
04:29 76.8 °F /  24.9 °C 71.2 °F /  21.8 °C 29.9in /  1012.7hPa Calm     83% 0in /  0.0mm
04:34 76.8 °F /  24.9 °C 71.2 °F /  21.8 °C 29.9in /  1012.7hPa Calm     83% 0in /  0.0mm
04:39 76.6 °F /  24.8 °C 71.1 °F /  21.7 °C 29.9in /  1012.7hPa Calm     83% 0in /  0.0mm
04:44 76.6 °F /  24.8 °C 71.1 °F /  21.7 °C 29.9in /  1012.7hPa Calm     83% 0in /  0.0mm
04:49 76.6 °F /  24.8 °C 71.1 °F /  21.7 °C 29.9in /  1012.7hPa Calm     83% 0in /  0.0mm
04:54 76.6 °F /  24.8 °C 71.1 °F /  21.7 °C 29.9in /  1012.6hPa Calm     83% 0in /  0.0mm
04:59 76.6 °F /  24.8 °C 71.1 °F /  21.7 °C 29.9in /  1012.6hPa Calm     83% 0in /  0.0mm
05:04 76.6 °F /  24.8 °C 71.1 °F /  21.7 °C 29.9in /  1012.6hPa Calm     83% 0in /  0.0mm
05:09 76.5 °F /  24.7 °C 70.9 °F /  21.6 °C 29.9in /  1012.5hPa Calm     83% 0in /  0.0mm
05:14 76.5 °F /  24.7 °C 70.9 °F /  21.6 °C 29.9in /  1012.5hPa Calm     83% 0in /  0.0mm
05:19 76.5 °F /  24.7 °C 71.1 °F /  21.7 °C 29.9in /  1012.5hPa Calm     83.6% 0in /  0.0mm
05:24 76.5 °F /  24.7 °C 71.2 °F /  21.8 °C 29.9in /  1012.4hPa Calm     84% 0in /  0.0mm
05:29 76.5 °F /  24.7 °C 70.9 °F /  21.6 °C 29.9in /  1012.4hPa Calm     83.2% 0in /  0.0mm
05:34 76.3 °F /  24.6 °C 70.7 °F /  21.5 °C 29.9in /  1012.4hPa Calm     83% 0in /  0.0mm
05:39 76.3 °F /  24.6 °C 70.9 °F /  21.6 °C 29.9in /  1012.4hPa Calm     83.6% 0in /  0.0mm
05:44 76.3 °F /  24.6 °C 71.1 °F /  21.7 °C 29.9in /  1012.4hPa Calm     84% 0in /  0.0mm
05:49 76.3 °F /  24.6 °C 71.1 °F /  21.7 °C 29.9in /  1012.5hPa Calm     84% 0in /  0.0mm
05:54 76.1 °F /  24.5 °C 70.9 °F /  21.6 °C 29.9in /  1012.5hPa Calm     84% 0in /  0.0mm
05:59 75.9 °F /  24.4 °C 70.7 °F /  21.5 °C 29.9in /  1012.5hPa Calm     84% 0in /  0.0mm
06:04 75.9 °F /  24.4 °C 70.7 °F /  21.5 °C 29.9in /  1012.5hPa Calm     84% 0in /  0.0mm
06:09 75.9 °F /  24.4 °C 70.7 °F /  21.5 °C 29.9in /  1012.5hPa Calm     84% 0in /  0.0mm
06:14 75.9 °F /  24.4 °C 70.7 °F /  21.5 °C 29.9in /  1012.5hPa Calm     84% 0in /  0.0mm
06:19 75.7 °F /  24.3 °C 70.3 °F /  21.3 °C 29.9in /  1012.5hPa Calm   3.6mph /  5.8km/h 83.2% 0in /  0.0mm
06:24 75.7 °F /  24.3 °C 70.2 °F /  21.2 °C 29.9in /  1012.5hPa Calm   4mph /  6.4km/h 83% 0in /  0.0mm
06:29 75.7 °F /  24.3 °C 70.2 °F /  21.2 °C 29.9in /  1012.5hPa Calm     83% 0in /  0.0mm
06:34 75.6 °F /  24.2 °C 70 °F /  21.1 °C 29.9in /  1012.6hPa Calm   5.2mph /  8.4km/h 83% 0in /  0.0mm
06:39 75.6 °F /  24.2 °C 70 °F /  21.1 °C 29.9in /  1012.6hPa SSE 0.9mph /  1.4km/h 5mph /  8km/h 83% 0in /  0.0mm
06:44 75.6 °F /  24.2 °C 70 °F /  21.1 °C 29.9in /  1012.6hPa SSE 2.4mph /  3.9km/h 5.9mph /  9.5km/h 83% 0in /  0.0mm
06:49 75.6 °F /  24.2 °C 70 °F /  21.1 °C 29.9in /  1012.7hPa SSE 2.7mph /  4.3km/h 6mph /  9.7km/h 83% 0in /  0.0mm
06:54 75.6 °F /  24.2 °C 70 °F /  21.1 °C 29.9in /  1012.7hPa SSE 3.1mph /  5km/h 5.2mph /  8.4km/h 83% 0in /  0.0mm
06:59 75.6 °F /  24.2 °C 70 °F /  21.1 °C 29.9in /  1012.7hPa SSE 3.1mph /  5km/h 6.2mph /  10km/h 83% 0in /  0.0mm
07:04 75.6 °F /  24.2 °C 70 °F /  21.1 °C 29.9in /  1012.8hPa Sur 3.1mph /  5km/h 6mph /  9.7km/h 83% 0in /  0.0mm
07:09 75.6 °F /  24.2 °C 70 °F /  21.1 °C 29.9in /  1012.8hPa Sur 3.3mph /  5.3km/h 5.2mph /  8.4km/h 83% 0in /  0.0mm
07:14 75.6 °F /  24.2 °C 70 °F /  21.1 °C 29.9in /  1012.8hPa SE 3.6mph /  5.8km/h 5mph /  8km/h 83% 0in /  0.0mm
07:19 75.6 °F /  24.2 °C 70 °F /  21.1 °C 29.9in /  1012.9hPa SE 3.2mph /  5.1km/h 5mph /  8km/h 83% 0in /  0.0mm
07:24 75.6 °F /  24.2 °C 70 °F /  21.1 °C 29.9in /  1012.9hPa SE 2.4mph /  3.9km/h 5mph /  8km/h 83% 0in /  0.0mm
07:29 75.4 °F /  24.1 °C 70 °F /  21.1 °C 29.9in /  1012.9hPa SE 2.5mph /  4.1km/h 5mph /  8km/h 83% 0in /  0.0mm
07:34 75.4 °F /  24.1 °C 70 °F /  21.1 °C 29.9in /  1013.1hPa SE 2.9mph /  4.7km/h 5mph /  8km/h 83% 0in /  0.0mm
07:39 75.4 °F /  24.1 °C 70 °F /  21.1 °C 29.9in /  1013.1hPa SE 2.5mph /  4km/h 5mph /  8km/h 83% 0in /  0.0mm
07:44 75.4 °F /  24.1 °C 70 °F /  21.1 °C 29.9in /  1013.1hPa SE 1.8mph /  2.9km/h 3mph /  4.8km/h 83% 0in /  0.0mm
07:49 75.6 °F /  24.2 °C 70 °F /  21.1 °C 29.9in /  1013.1hPa ESE 1.1mph /  1.8km/h 3mph /  4.8km/h 83% 0in /  0.0mm
07:54 75.6 °F /  24.2 °C 69.8 °F /  21 °C 29.9in /  1013.1hPa Calm   1mph /  1.6km/h 82.3% 0in /  0.0mm
07:59 75.7 °F /  24.3 °C 70.2 °F /  21.2 °C 29.9in /  1013.1hPa Calm     82.9% 0in /  0.0mm
08:04 75.7 °F /  24.3 °C 70.2 °F /  21.2 °C 29.9in /  1013.3hPa Calm   3.6mph /  5.8km/h 82.9% 0in /  0.0mm
08:09 75.9 °F /  24.4 °C 70 °F /  21.1 °C 29.9in /  1013.3hPa NNE 0.5mph /  0.8km/h 4mph /  6.4km/h 82% 0in /  0.0mm
08:14 76.1 °F /  24.5 °C 70.3 °F /  21.3 °C 29.9in /  1013.3hPa NNE 1.4mph /  2.2km/h 4mph /  6.4km/h 82% 0in /  0.0mm
08:19 76.5 °F /  24.7 °C 70.5 °F /  21.4 °C 29.9in /  1013.3hPa NE 1.6mph /  2.6km/h 4.6mph /  7.4km/h 82% 0in /  0.0mm
08:24 76.6 °F /  24.8 °C 70.5 °F /  21.4 °C 29.9in /  1013.2hPa NNE 2mph /  3.2km/h 5mph /  8km/h 81.5% 0in /  0.0mm
08:29 76.6 °F /  24.8 °C 70.5 °F /  21.4 °C 29.9in /  1013.2hPa NNE 1.9mph /  3.1km/h 5mph /  8km/h 81% 0in /  0.0mm
08:34 76.8 °F /  24.9 °C 70.2 °F /  21.2 °C 29.9in /  1013.3hPa NNO 1.8mph /  2.9km/h 5.2mph /  8.4km/h 80.1% 0in /  0.0mm
08:39 77 °F /  25 °C 70.3 °F /  21.3 °C 29.9in /  1013.3hPa NNO 2mph /  3.2km/h 5mph /  8km/h 80% 0in /  0.0mm
08:44 77 °F /  25 °C 70.3 °F /  21.3 °C 29.9in /  1013.3hPa NNO 2.4mph /  3.9km/h 5mph /  8km/h 80% 0in /  0.0mm
08:49 77 °F /  25 °C 70.7 °F /  21.5 °C 29.9in /  1013.6hPa NNO 2.2mph /  3.5km/h 5mph /  8km/h 80.9% 0in /  0.0mm
08:54 77.2 °F /  25.1 °C 70.5 °F /  21.4 °C 29.9in /  1013.6hPa North 1.8mph /  2.9km/h 5mph /  8km/h 80% 0in /  0.0mm
08:59 77.4 °F /  25.2 °C 70.7 °F /  21.5 °C 29.9in /  1013.6hPa North 1.1mph /  1.7km/h 3mph /  4.8km/h 80% 0in /  0.0mm
09:04 77.4 °F /  25.2 °C 70.7 °F /  21.5 °C 29.9in /  1013.8hPa Calm   1.4mph /  2.3km/h 80% 0in /  0.0mm
09:09 77.4 °F /  25.2 °C 70.7 °F /  21.5 °C 29.9in /  1013.8hPa Calm   4.6mph /  7.4km/h 80% 0in /  0.0mm
09:14 77.5 °F /  25.3 °C 70.9 °F /  21.6 °C 29.9in /  1013.8hPa Calm   5mph /  8km/h 80% 0in /  0.0mm
09:19 77.7 °F /  25.4 °C 71.1 °F /  21.7 °C 29.9in /  1013.9hPa NE 0.5mph /  0.8km/h 3mph /  4.8km/h 80% 0in /  0.0mm
09:24 78.1 °F /  25.6 °C 71.2 °F /  21.8 °C 29.9in /  1013.9hPa NE 1.4mph /  2.2km/h 3.6mph /  5.8km/h 79.6% 0in /  0.0mm
09:29 78.3 °F /  25.7 °C 71.2 °F /  21.8 °C 29.9in /  1013.9hPa NE 1.4mph /  2.2km/h 4mph /  6.4km/h 79% 0in /  0.0mm
09:34 78.6 °F /  25.9 °C 71.4 °F /  21.9 °C 29.9in /  1014.0hPa NNE 1.4mph /  2.2km/h 4.6mph /  7.4km/h 78.4% 0in /  0.0mm
09:39 79.2 °F /  26.2 °C 71.2 °F /  21.8 °C 29.9in /  1014.0hPa ONO 1.6mph /  2.5km/h 5.2mph /  8.4km/h 77% 0in /  0.0mm
09:44 79.2 °F /  26.2 °C 71.2 °F /  21.8 °C 29.9in /  1014.0hPa North 1.8mph /  2.9km/h 5.2mph /  8.4km/h 76.7% 0in /  0.0mm
09:49 79.3 °F /  26.3 °C 70.9 °F /  21.6 °C 29.9in /  1014.0hPa NE 1.9mph /  3km/h 6.2mph /  10km/h 75.3% 0in /  0.0mm
09:54 79.7 °F /  26.5 °C 70.7 °F /  21.5 °C 29.9in /  1014.0hPa NNE 2mph /  3.2km/h 6.9mph /  11.1km/h 74.2% 0in /  0.0mm
09:59 79.9 °F /  26.6 °C 70.9 °F /  21.6 °C 29.9in /  1014.0hPa Este 2.4mph /  3.8km/h 7mph /  11.3km/h 74.3% 0in /  0.0mm
10:04 80.4 °F /  26.9 °C 71.2 °F /  21.8 °C 29.9in /  1014.0hPa ENE 2.9mph /  4.6km/h 4.7mph /  7.6km/h 73.7% 0in /  0.0mm
10:09 81 °F /  27.2 °C 71.1 °F /  21.7 °C 29.9in /  1014.0hPa North 2.5mph /  4km/h 5.2mph /  8.4km/h 71.8% 0in /  0.0mm
10:14 81.1 °F /  27.3 °C 70.5 °F /  21.4 °C 29.9in /  1014.0hPa North 1.8mph /  2.9km/h 6.9mph /  11.1km/h 70.5% 0in /  0.0mm
10:19 81 °F /  27.2 °C 70.3 °F /  21.3 °C 29.9in /  1014.0hPa Este 2.2mph /  3.6km/h 7mph /  11.3km/h 70% 0in /  0.0mm
10:24 81 °F /  27.2 °C 70.7 °F /  21.5 °C 29.9in /  1014.0hPa ENE 3.1mph /  5km/h 6mph /  9.7km/h 70.7% 0in /  0.0mm
10:29 81 °F /  27.2 °C 70.3 °F /  21.3 °C 29.9in /  1014.0hPa NE 3.3mph /  5.3km/h 7.4mph /  11.9km/h 70.1% 0in /  0.0mm
10:34 81 °F /  27.2 °C 70.3 °F /  21.3 °C 29.9in /  1014.0hPa NE 3.6mph /  5.8km/h 7mph /  11.3km/h 70.1% 0in /  0.0mm
10:39 81 °F /  27.2 °C 70.3 °F /  21.3 °C 29.9in /  1013.9hPa ESE 3.4mph /  5.5km/h 6mph /  9.7km/h 70% 0in /  0.0mm
10:44 81 °F /  27.2 °C 70.3 °F /  21.3 °C 29.9in /  1013.9hPa ENE 3.1mph /  5km/h 8.1mph /  13km/h 70.2% 0in /  0.0mm
10:49 80.8 °F /  27.1 °C 69.8 °F /  21 °C 29.9in /  1013.9hPa NNE 3.5mph /  5.7km/h 8.1mph /  13km/h 69.1% 0in /  0.0mm
10:54 81 °F /  27.2 °C 69.4 °F /  20.8 °C 29.9in /  1013.8hPa NE 4.3mph /  6.9km/h 9.2mph /  14.8km/h 68.2% 0in /  0.0mm
10:59 81.1 °F /  27.3 °C 69.6 °F /  20.9 °C 29.9in /  1013.8hPa ENE 4.2mph /  6.7km/h 9mph /  14.5km/h 68.1% 0in /  0.0mm
11:04 81.1 °F /  27.3 °C 69.4 °F /  20.8 °C 29.9in /  1013.8hPa NNE 4mph /  6.5km/h 7.4mph /  11.9km/h 67.6% 0in /  0.0mm
11:09 81.5 °F /  27.5 °C 69.6 °F /  20.9 °C 29.9in /  1013.7hPa NNO 4mph /  6.5km/h 7mph /  11.3km/h 67.2% 0in /  0.0mm
11:14 82 °F /  27.8 °C 69.4 °F /  20.8 °C 29.9in /  1013.7hPa NNE 4mph /  6.5km/h 8.5mph /  13.7km/h 65.9% 0in /  0.0mm
11:19 82.4 °F /  28 °C 69.4 °F /  20.8 °C 29.9in /  1013.9hPa NNE 4mph /  6.5km/h 9mph /  14.5km/h 65.2% 0in /  0.0mm
11:24 82.9 °F /  28.3 °C 69.4 °F /  20.8 °C 29.9in /  1013.9hPa NNO 4mph /  6.5km/h 6mph /  9.7km/h 64% 0in /  0.0mm
11:29 83.7 °F /  28.7 °C 69.4 °F /  20.8 °C 29.9in /  1013.9hPa ENE 3.7mph /  5.9km/h 10.2mph /  16.4km/h 62.4% 0in /  0.0mm
11:34 83.5 °F /  28.6 °C 68.5 °F /  20.3 °C 29.9in /  1013.9hPa NNE 2.9mph /  4.7km/h 13mph /  20.9km/h 60.9% 0in /  0.0mm
11:39 82.9 °F /  28.3 °C 68.5 °F /  20.3 °C 29.9in /  1013.6hPa NE 4mph /  6.5km/h 13mph /  20.9km/h 61.9% 0in /  0.0mm
11:44 82.9 °F /  28.3 °C 68.5 °F /  20.3 °C 29.9in /  1013.6hPa NNE 6.2mph /  10km/h 12.7mph /  20.4km/h 62% 0in /  0.0mm
11:49 82.6 °F /  28.1 °C 68.5 °F /  20.3 °C 29.9in /  1013.6hPa NNE 6.5mph /  10.4km/h 13mph /  20.9km/h 62.5% 0in /  0.0mm
11:54 82.4 °F /  28 °C 68.4 °F /  20.2 °C 29.9in /  1013.4hPa NE 6.9mph /  11.1km/h 13mph /  20.9km/h 62.6% 0in /  0.0mm
11:59 82.8 °F /  28.2 °C 68.4 °F /  20.2 °C 29.9in /  1013.4hPa NE 6.2mph /  10km/h 13.8mph /  22.2km/h 62.1% 0in /  0.0mm
12:04 82.9 °F /  28.3 °C 68 °F /  20 °C 29.9in /  1013.4hPa NNE 5.2mph /  8.4km/h 14mph /  22.5km/h 60.8% 0in /  0.0mm
12:09 83.1 °F /  28.4 °C 68 °F /  20 °C 29.9in /  1013.3hPa NNO 5.5mph /  8.8km/h 10.4mph /  16.7km/h 60.4% 0in /  0.0mm
12:14 83.3 °F /  28.5 °C 68.4 °F /  20.2 °C 29.9in /  1013.3hPa North 5.9mph /  9.5km/h 11.5mph /  18.5km/h 60.8% 0in /  0.0mm
12:19 83.8 °F /  28.8 °C 68.4 °F /  20.2 °C 29.9in /  1013.3hPa NNE 5.3mph /  8.6km/h 12.7mph /  20.4km/h 59.8% 0in /  0.0mm
12:24 83.8 °F /  28.8 °C 68 °F /  20 °C 29.9in /  1013.3hPa ENE 4.3mph /  6.9km/h 13mph /  20.9km/h 59% 0in /  0.0mm
12:29 84 °F /  28.9 °C 68.2 °F /  20.1 °C 29.9in /  1013.3hPa Este 4.7mph /  7.5km/h 9mph /  14.5km/h 59% 0in /  0.0mm
12:34 84.6 °F /  29.2 °C 68.2 °F /  20.1 °C 29.9in /  1013.3hPa Este 5.2mph /  8.4km/h 12.7mph /  20.4km/h 58.3% 0in /  0.0mm
12:39 84.6 °F /  29.2 °C 68.4 °F /  20.2 °C 29.9in /  1013.1hPa ESE 5.8mph /  9.3km/h 13mph /  20.9km/h 58.1% 0in /  0.0mm
12:44 84.6 °F /  29.2 °C 68.5 °F /  20.3 °C 29.9in /  1013.1hPa ENE 6.9mph /  11.1km/h 10.4mph /  16.7km/h 58.5% 0in /  0.0mm
12:49 84.9 °F /  29.4 °C 68.7 °F /  20.4 °C 29.9in /  1013.1hPa NNE 6.4mph /  10.3km/h 12.7mph /  20.4km/h 58.6% 0in /  0.0mm
12:54 85.5 °F /  29.7 °C 68.7 °F /  20.4 °C 29.9in /  1013.1hPa ENE 5.4mph /  8.7km/h 13mph /  20.9km/h 57.4% 0in /  0.0mm
12:59 85.5 °F /  29.7 °C 68.5 °F /  20.3 °C 29.9in /  1013.1hPa North 5.2mph /  8.3km/h 9.7mph /  15.6km/h 57% 0in /  0.0mm
13:04 85.6 °F /  29.8 °C 68.4 °F /  20.2 °C 29.9in /  1013.2hPa NNE 4.3mph /  6.9km/h 10mph /  16.1km/h 56.1% 0in /  0.0mm
13:09 85.6 °F /  29.8 °C 68.4 °F /  20.2 °C 29.9in /  1013.2hPa NE 4.8mph /  7.8km/h 13mph /  20.9km/h 56.4% 0in /  0.0mm
13:14 85.5 °F /  29.7 °C 68.5 °F /  20.3 °C 29.9in /  1013.2hPa NE 5.9mph /  9.5km/h 14mph /  22.5km/h 57% 0in /  0.0mm
13:19 85.3 °F /  29.6 °C 68 °F /  20 °C 29.9in /  1013.2hPa NE 6.6mph /  10.7km/h 14mph /  22.5km/h 56.4% 0in /  0.0mm
13:24 85.5 °F /  29.7 °C 68 °F /  20 °C 29.9in /  1013.1hPa North 8.1mph /  13km/h 13mph /  20.9km/h 56% 0in /  0.0mm
13:29 86 °F /  30 °C 67.8 °F /  19.9 °C 29.9in /  1013.1hPa NE 7mph /  11.3km/h 11.8mph /  19km/h 54.7% 0in /  0.0mm
13:34 86.2 °F /  30.1 °C 66.9 °F /  19.4 °C 29.9in /  1013.1hPa NE 4.3mph /  6.9km/h 12mph /  19.3km/h 53% 0in /  0.0mm
13:39 86.4 °F /  30.2 °C 67.1 °F /  19.5 °C 29.9in /  1013.0hPa ENE 5mph /  8.1km/h 12.5mph /  20.1km/h 53% 0in /  0.0mm
13:44 86.4 °F /  30.2 °C 66.7 °F /  19.3 °C 29.9in /  1013.0hPa NE 6.2mph /  10km/h 13mph /  20.9km/h 52.2% 0in /  0.0mm
13:49 86.5 °F /  30.3 °C 66.7 °F /  19.3 °C 29.9in /  1013.0hPa NE 6.5mph /  10.4km/h 13mph /  20.9km/h 51.7% 0in /  0.0mm
13:54 86.9 °F /  30.5 °C 66.7 °F /  19.3 °C 29.9in /  1013.0hPa NNE 6.9mph /  11.1km/h 13mph /  20.9km/h 51.1% 0in /  0.0mm
13:59 87.3 °F /  30.7 °C 67.6 °F /  19.8 °C 29.9in /  1013.0hPa NE 6.1mph /  9.8km/h 11.8mph /  19km/h 52.2% 0in /  0.0mm
14:04 87.4 °F /  30.8 °C 68 °F /  20 °C 29.9in /  1013.0hPa Este 4.7mph /  7.6km/h 12mph /  19.3km/h 52.4% 0in /  0.0mm
14:09 87.6 °F /  30.9 °C 67.8 °F /  19.9 °C 29.9in /  1013.0hPa NE 5.3mph /  8.6km/h 14mph /  22.5km/h 51.9% 0in /  0.0mm
14:14 87.8 °F /  31 °C 67.5 °F /  19.7 °C 29.9in /  1013.0hPa NE 6.4mph /  10.3km/h 14mph /  22.5km/h 51.1% 0in /  0.0mm
14:19 88 °F /  31.1 °C 66.6 °F /  19.2 °C 29.9in /  1013.0hPa NNE 6.4mph /  10.3km/h 16.1mph /  25.9km/h 49.4% 0in /  0.0mm
14:24 87.6 °F /  30.9 °C 66.9 °F /  19.4 °C 29.9in /  1012.9hPa NE 6.4mph /  10.3km/h 17.3mph /  27.8km/h 50.4% 0in /  0.0mm
14:29 87.1 °F /  30.6 °C 66.9 °F /  19.4 °C 29.9in /  1012.9hPa NE 7.7mph /  12.4km/h 17mph /  27.4km/h 51.2% 0in /  0.0mm
14:34 87.3 °F /  30.7 °C 67.1 °F /  19.5 °C 29.9in /  1012.9hPa NE 10.2mph /  16.4km/h 16.1mph /  25.9km/h 51.6% 0in /  0.0mm
14:39 87.3 °F /  30.7 °C 66.9 °F /  19.4 °C 29.9in /  1012.5hPa NE 10mph /  16.1km/h 16.1mph /  25.9km/h 51% 0in /  0.0mm
14:44 87.4 °F /  30.8 °C 66.7 °F /  19.3 °C 29.9in /  1012.5hPa NE 9.7mph /  15.6km/h 17.3mph /  27.8km/h 50.4% 0in /  0.0mm
14:49 87.4 °F /  30.8 °C 66.4 °F /  19.1 °C 29.9in /  1012.5hPa NE 9.5mph /  15.3km/h 17mph /  27.4km/h 49.9% 0in /  0.0mm
14:54 87.6 °F /  30.9 °C 66.6 °F /  19.2 °C 29.9in /  1012.3hPa ENE 9.2mph /  14.8km/h 16.1mph /  25.9km/h 49.8% 0in /  0.0mm
14:59 87.8 °F /  31 °C 66.2 °F /  19 °C 29.9in /  1012.3hPa NNE 9mph /  14.5km/h 15.2mph /  24.5km/h 48.9% 0in /  0.0mm
15:04 87.8 °F /  31 °C 66.2 °F /  19 °C 29.9in /  1012.3hPa NE 8.7mph /  14km/h 16.3mph /  26.2km/h 48.8% 0in /  0.0mm
15:09 88 °F /  31.1 °C 66.4 °F /  19.1 °C 29.9in /  1012.3hPa NE 8.7mph /  14km/h 16mph /  25.7km/h 49% 0in /  0.0mm
15:14 88.2 °F /  31.2 °C 66.2 °F /  19 °C 29.9in /  1012.3hPa NE 8.7mph /  14km/h 18.1mph /  29.1km/h 48.4% 0in /  0.0mm
15:19 87.8 °F /  31 °C 65.7 °F /  18.7 °C 29.9in /  1012.3hPa NE 8.9mph /  14.3km/h 18.4mph /  29.6km/h 48% 0in /  0.0mm
15:24 87.6 °F /  30.9 °C 65.3 °F /  18.5 °C 29.9in /  1012.2hPa NE 9.2mph /  14.8km/h 18.4mph /  29.6km/h 47.9% 0in /  0.0mm
15:29 87.6 °F /  30.9 °C 65.7 °F /  18.7 °C 29.9in /  1012.2hPa NE 9.5mph /  15.3km/h 18mph /  29km/h 48.2% 0in /  0.0mm
15:34 87.6 °F /  30.9 °C 65.7 °F /  18.7 °C 29.9in /  1012.2hPa NNE 10.2mph /  16.4km/h 16.1mph /  25.9km/h 48.2% 0in /  0.0mm
15:39 87.6 °F /  30.9 °C 66 °F /  18.9 °C 29.9in /  1011.8hPa ENE 10.6mph /  17km/h 17.3mph /  27.8km/h 48.8% 0in /  0.0mm
15:44 88 °F /  31.1 °C 65.5 °F /  18.6 °C 29.9in /  1011.8hPa NE 11.2mph /  18km/h 17mph /  27.4km/h 47.6% 0in /  0.0mm
15:49 88.2 °F /  31.2 °C 65.5 °F /  18.6 °C 29.9in /  1011.8hPa NE 10.5mph /  16.9km/h 15mph /  24.1km/h 47.3% 0in /  0.0mm
15:54 88.2 °F /  31.2 °C 65.8 °F /  18.8 °C 29.9in /  1011.8hPa NE 9.2mph /  14.8km/h 17.3mph /  27.8km/h 47.7% 0in /  0.0mm
15:59 88.2 °F /  31.2 °C 65.7 °F /  18.7 °C 29.9in /  1011.8hPa NE 9.5mph /  15.3km/h 17mph /  27.4km/h 47.4% 0in /  0.0mm
16:04 88.3 °F /  31.3 °C 65.8 °F /  18.8 °C 29.9in /  1011.8hPa ENE 10mph /  16.1km/h 17.5mph /  28.2km/h 47.5% 0in /  0.0mm
16:09 88.2 °F /  31.2 °C 65.7 °F /  18.7 °C 29.9in /  1011.8hPa NE 9.9mph /  15.9km/h 17mph /  27.4km/h 47.4% 0in /  0.0mm
16:14 88.3 °F /  31.3 °C 65.5 °F /  18.6 °C 29.9in /  1011.8hPa NE 9.7mph /  15.6km/h 18.1mph /  29.1km/h 46.9% 0in /  0.0mm
16:19 88.3 °F /  31.3 °C 65.1 °F /  18.4 °C 29.9in /  1011.8hPa ENE 9.4mph /  15.1km/h 18mph /  29km/h 46.3% 0in /  0.0mm
16:24 88.5 °F /  31.4 °C 65.5 °F /  18.6 °C 29.9in /  1011.6hPa ENE 8.7mph /  14km/h 19.6mph /  31.5km/h 46.6% 0in /  0.0mm
16:29 88.9 °F /  31.6 °C 65.3 °F /  18.5 °C 29.9in /  1011.6hPa NE 8.5mph /  13.7km/h 20mph /  32.2km/h 46% 0in /  0.0mm
16:34 88.7 °F /  31.5 °C 65.1 °F /  18.4 °C 29.9in /  1011.6hPa NE 8.1mph /  13km/h 15mph /  24.1km/h 45.9% 0in /  0.0mm
16:39 88.3 °F /  31.3 °C 64.9 °F /  18.3 °C 29.9in /  1011.3hPa NE 8.9mph /  14.3km/h 15mph /  24.1km/h 45.8% 0in /  0.0mm
16:44 88.3 °F /  31.3 °C 65.7 °F /  18.7 °C 29.9in /  1011.3hPa ENE 10.2mph /  16.4km/h 18.5mph /  29.8km/h 47% 0in /  0.0mm
16:49 88.2 °F /  31.2 °C 65.5 °F /  18.6 °C 29.9in /  1011.3hPa NE 10.2mph /  16.4km/h 19mph /  30.6km/h 47% 0in /  0.0mm
16:54 88.2 °F /  31.2 °C 65.7 °F /  18.7 °C 29.9in /  1011.2hPa NE 10.2mph /  16.4km/h 16mph /  25.7km/h 47.4% 0in /  0.0mm
16:59 88.3 °F /  31.3 °C 65.3 °F /  18.5 °C 29.9in /  1011.2hPa NE 9.8mph /  15.8km/h 16.1mph /  25.9km/h 46.6% 0in /  0.0mm
17:04 88.3 °F /  31.3 °C 65.3 °F /  18.5 °C 29.9in /  1011.2hPa NE 9.2mph /  14.8km/h 18.4mph /  29.6km/h 46.7% 0in /  0.0mm
17:09 88.3 °F /  31.3 °C 64.9 °F /  18.3 °C 29.9in /  1011.1hPa NE 9.7mph /  15.6km/h 19mph /  30.6km/h 46% 0in /  0.0mm
17:14 88.3 °F /  31.3 °C 64.8 °F /  18.2 °C 29.9in /  1011.1hPa NE 10.7mph /  17.2km/h 19mph /  30.6km/h 45.8% 0in /  0.0mm
17:19 88.5 °F /  31.4 °C 64.6 °F /  18.1 °C 29.9in /  1011.1hPa NE 10.3mph /  16.6km/h 17.3mph /  27.8km/h 45.2% 0in /  0.0mm
17:24 88.9 °F /  31.6 °C 64.2 °F /  17.9 °C 29.9in /  1010.9hPa ENE 9.7mph /  15.6km/h 16mph /  25.7km/h 44.2% 0in /  0.0mm
17:29 88.7 °F /  31.5 °C 64.4 °F /  18 °C 29.9in /  1010.9hPa ENE 9.3mph /  14.9km/h 16.1mph /  25.9km/h 44.7% 0in /  0.0mm
17:34 88.2 °F /  31.2 °C 63.9 °F /  17.7 °C 29.9in /  1010.9hPa NE 8.1mph /  13km/h 19mph /  30.6km/h 44.6% 0in /  0.0mm
17:39 88 °F /  31.1 °C 64.2 °F /  17.9 °C 29.8in /  1010.7hPa NE 9.2mph /  14.8km/h 19mph /  30.6km/h 45.4% 0in /  0.0mm
17:44 88 °F /  31.1 °C 64.4 °F /  18 °C 29.8in /  1010.7hPa NE 11.2mph /  18km/h 17mph /  27.4km/h 45.8% 0in /  0.0mm
17:49 88 °F /  31.1 °C 64.6 °F /  18.1 °C 29.8in /  1010.7hPa NE 10.9mph /  17.5km/h 18.4mph /  29.6km/h 45.9% 0in /  0.0mm
17:54 88 °F /  31.1 °C 64 °F /  17.8 °C 29.8in /  1010.5hPa ENE 10.2mph /  16.4km/h 18mph /  29km/h 45.1% 0in /  0.0mm
17:59 88 °F /  31.1 °C 64.4 °F /  18 °C 29.8in /  1010.5hPa NNE 9.8mph /  15.8km/h 18.4mph /  29.6km/h 45.7% 0in /  0.0mm
18:04 88 °F /  31.1 °C 64.4 °F /  18 °C 29.8in /  1010.5hPa NE 9.2mph /  14.8km/h 18mph /  29km/h 45.6% 0in /  0.0mm
18:09 88 °F /  31.1 °C 64.8 °F /  18.2 °C 29.8in /  1010.5hPa NE 9mph /  14.5km/h 17.3mph /  27.8km/h 46.4% 0in /  0.0mm
18:14 87.6 °F /  30.9 °C 65.1 °F /  18.4 °C 29.8in /  1010.5hPa NE 8.7mph /  14km/h 18.4mph /  29.6km/h 47.3% 0in /  0.0mm
18:19 87.4 °F /  30.8 °C 64.9 °F /  18.3 °C 29.8in /  1010.6hPa NE 9.7mph /  15.6km/h 18mph /  29km/h 47.5% 0in /  0.0mm
18:24 87.4 °F /  30.8 °C 64.8 °F /  18.2 °C 29.8in /  1010.6hPa NE 11.4mph /  18.4km/h 18.5mph /  29.8km/h 47% 0in /  0.0mm
18:29 87.4 °F /  30.8 °C 64.9 °F /  18.3 °C 29.8in /  1010.6hPa NE 10.9mph /  17.6km/h 19mph /  30.6km/h 47.3% 0in /  0.0mm
18:34 87.3 °F /  30.7 °C 65.1 °F /  18.4 °C 29.8in /  1010.6hPa NE 10mph /  16.1km/h 19.6mph /  31.5km/h 47.9% 0in /  0.0mm
18:39 86.9 °F /  30.5 °C 65.3 °F /  18.5 °C 29.8in /  1010.5hPa NE 10.3mph /  16.5km/h 20mph /  32.2km/h 48.9% 0in /  0.0mm
18:44 87.1 °F /  30.6 °C 65.8 °F /  18.8 °C 29.8in /  1010.5hPa NE 10.7mph /  17.2km/h 16mph /  25.7km/h 49.4% 0in /  0.0mm
18:49 87.1 °F /  30.6 °C 66.2 °F /  19 °C 29.8in /  1010.5hPa NE 10.4mph /  16.8km/h 17.3mph /  27.8km/h 50% 0in /  0.0mm
18:54 87.3 °F /  30.7 °C 66 °F /  18.9 °C 29.8in /  1010.5hPa NE 10mph /  16.1km/h 17mph /  27.4km/h 49.6% 0in /  0.0mm
18:59 87.1 °F /  30.6 °C 65.1 °F /  18.4 °C 29.8in /  1010.5hPa NE 9.9mph /  15.9km/h 18.4mph /  29.6km/h 48.4% 0in /  0.0mm
19:04 87.1 °F /  30.6 °C 65.7 °F /  18.7 °C 29.8in /  1010.5hPa NE 9.7mph /  15.6km/h 18mph /  29km/h 49% 0in /  0.0mm
19:09 87.1 °F /  30.6 °C 65.5 °F /  18.6 °C 29.8in /  1010.3hPa NE 9.5mph /  15.3km/h 16mph /  25.7km/h 49% 0in /  0.0mm
19:14 86.7 °F /  30.4 °C 65.3 °F /  18.5 °C 29.8in /  1010.3hPa NE 9.2mph /  14.8km/h 15.2mph /  24.5km/h 48.9% 0in /  0.0mm
19:19 86.5 °F /  30.3 °C 65.5 °F /  18.6 °C 29.8in /  1010.3hPa NE 9mph /  14.5km/h 15mph /  24.1km/h 49.7% 0in /  0.0mm
19:24 86.5 °F /  30.3 °C 65.1 °F /  18.4 °C 29.8in /  1010.3hPa NE 8.7mph /  14km/h 18.4mph /  29.6km/h 49% 0in /  0.0mm
19:29 86.4 °F /  30.2 °C 65.1 °F /  18.4 °C 29.8in /  1010.3hPa NE 8.9mph /  14.3km/h 18mph /  29km/h 49.1% 0in /  0.0mm
19:34 86.4 °F /  30.2 °C 65.5 °F /  18.6 °C 29.8in /  1010.3hPa NE 9.2mph /  14.8km/h 16.1mph /  25.9km/h 50% 0in /  0.0mm
19:39 86 °F /  30 °C 65.3 °F /  18.5 °C 29.8in /  1010.3hPa NE 9.5mph /  15.3km/h 16mph /  25.7km/h 50% 0in /  0.0mm
19:44 85.8 °F /  29.9 °C 64.8 °F /  18.2 °C 29.8in /  1010.3hPa NE 10.2mph /  16.4km/h 17.5mph /  28.2km/h 49.4% 0in /  0.0mm
19:49 85.6 °F /  29.8 °C 64.2 °F /  17.9 °C 29.8in /  1010.3hPa NE 10.6mph /  17km/h 17.3mph /  27.8km/h 49% 0in /  0.0mm
19:54 85.5 °F /  29.7 °C 64 °F /  17.8 °C 29.8in /  1010.1hPa NE 11.2mph /  18km/h 17mph /  27.4km/h 49% 0in /  0.0mm
19:59 85.3 °F /  29.6 °C 63.7 °F /  17.6 °C 29.8in /  1010.1hPa NE 11mph /  17.7km/h 16.3mph /  26.2km/h 48.5% 0in /  0.0mm
20:04 84.9 °F /  29.4 °C 63 °F /  17.2 °C 29.8in /  1010.1hPa NE 10.7mph /  17.2km/h 17.3mph /  27.8km/h 48% 0in /  0.0mm
20:09 84.9 °F /  29.4 °C 63 °F /  17.2 °C 29.8in /  1010.1hPa NE 10.1mph /  16.3km/h 17mph /  27.4km/h 48% 0in /  0.0mm
20:14 84.9 °F /  29.4 °C 63 °F /  17.2 °C 29.8in /  1010.1hPa NNE 9.2mph /  14.8km/h 15mph /  24.1km/h 48% 0in /  0.0mm
20:19 84.7 °F /  29.3 °C 63 °F /  17.2 °C 29.8in /  1010.4hPa NE 9mph /  14.5km/h 14.5mph /  23.3km/h 48% 0in /  0.0mm
20:24 84.6 °F /  29.2 °C 62.8 °F /  17.1 °C 29.8in /  1010.4hPa NE 8.7mph /  14km/h 15mph /  24.1km/h 48% 0in /  0.0mm
20:29 84.4 °F /  29.1 °C 62.6 °F /  17 °C 29.8in /  1010.4hPa NE 8.3mph /  13.4km/h 15mph /  24.1km/h 48% 0in /  0.0mm
20:34 84 °F /  28.9 °C 62.6 °F /  17 °C 29.8in /  1010.4hPa NE 7.6mph /  12.2km/h 14mph /  22.5km/h 48.6% 0in /  0.0mm
20:39 83.8 °F /  28.8 °C 62.4 °F /  16.9 °C 29.8in /  1010.4hPa NE 8mph /  12.8km/h 16.1mph /  25.9km/h 48.7% 0in /  0.0mm
20:44 83.7 °F /  28.7 °C 62.4 °F /  16.9 °C 29.8in /  1010.4hPa NNE 8.7mph /  14km/h 16mph /  25.7km/h 49.2% 0in /  0.0mm
20:49 83.3 °F /  28.5 °C 63.1 °F /  17.3 °C 29.8in /  1010.5hPa NE 8.9mph /  14.4km/h 15mph /  24.1km/h 50.7% 0in /  0.0mm
20:54 82.9 °F /  28.3 °C 63 °F /  17.2 °C 29.8in /  1010.5hPa NE 9.7mph /  15.6km/h 15mph /  24.1km/h 51% 0in /  0.0mm
20:59 82.8 °F /  28.2 °C 63.3 °F /  17.4 °C 29.8in /  1010.5hPa NE 9.3mph /  15km/h 15mph /  24.1km/h 52.3% 0in /  0.0mm
21:04 82.2 °F /  27.9 °C 63.7 °F /  17.6 °C 29.8in /  1010.6hPa NE 8.7mph /  14km/h 14mph /  22.5km/h 53.3% 0in /  0.0mm
21:09 82 °F /  27.8 °C 63.9 °F /  17.7 °C 29.8in /  1010.6hPa NE 8.5mph /  13.7km/h 14mph /  22.5km/h 54% 0in /  0.0mm
21:14 81.9 °F /  27.7 °C 64 °F /  17.8 °C 29.8in /  1010.6hPa NE 8.1mph /  13km/h 10.7mph /  17.2km/h 54.8% 0in /  0.0mm
21:19 81.7 °F /  27.6 °C 64.2 °F /  17.9 °C 29.9in /  1010.8hPa NE 7.9mph /  12.7km/h 13.5mph /  21.7km/h 55.6% 0in /  0.0mm
21:24 81.3 °F /  27.4 °C 64.4 °F /  18 °C 29.9in /  1010.8hPa NE 7.6mph /  12.2km/h 14mph /  22.5km/h 56.4% 0in /  0.0mm
21:29 81.1 °F /  27.3 °C 64.8 °F /  18.2 °C 29.9in /  1010.8hPa NE 7.6mph /  12.2km/h 11.5mph /  18.5km/h 57.3% 0in /  0.0mm
21:34 81.1 °F /  27.3 °C 64.9 °F /  18.3 °C 29.9in /  1011.0hPa NE 7.6mph /  12.2km/h 12mph /  19.3km/h 58% 0in /  0.0mm
21:39 81 °F /  27.2 °C 64.8 °F /  18.2 °C 29.9in /  1011.0hPa NE 7.8mph /  12.5km/h 12mph /  19.3km/h 58% 0in /  0.0mm
21:44 80.8 °F /  27.1 °C 64.6 °F /  18.1 °C 29.9in /  1011.0hPa NE 8.1mph /  13km/h 12.7mph /  20.4km/h 58% 0in /  0.0mm
21:49 80.4 °F /  26.9 °C 64.4 °F /  18 °C 29.9in /  1011.2hPa NE 7.8mph /  12.6km/h 13mph /  20.9km/h 58% 0in /  0.0mm
21:54 80.2 °F /  26.8 °C 64.2 °F /  17.9 °C 29.9in /  1011.2hPa NE 7.4mph /  11.9km/h 13mph /  20.9km/h 58.1% 0in /  0.0mm
21:59 80.1 °F /  26.7 °C 64.6 °F /  18.1 °C 29.9in /  1011.2hPa NE 7.2mph /  11.6km/h 13.8mph /  22.2km/h 59.2% 0in /  0.0mm
22:04 80.1 °F /  26.7 °C 65.1 °F /  18.4 °C 29.9in /  1011.3hPa NE 6.9mph /  11.1km/h 14mph /  22.5km/h 60.6% 0in /  0.0mm
22:09 79.9 °F /  26.6 °C 65.1 °F /  18.4 °C 29.9in /  1011.3hPa NE 7mph /  11.3km/h 13mph /  20.9km/h 61% 0in /  0.0mm
22:14 79.7 °F /  26.5 °C 65.5 °F /  18.6 °C 29.9in /  1011.3hPa NE 7.4mph /  11.9km/h 10.4mph /  16.7km/h 61.8% 0in /  0.0mm
22:19 79.5 °F /  26.4 °C 65.8 °F /  18.8 °C 29.9in /  1011.6hPa NE 7.2mph /  11.6km/h 11.5mph /  18.5km/h 62.8% 0in /  0.0mm
22:24 79.5 °F /  26.4 °C 66.6 °F /  19.2 °C 29.9in /  1011.6hPa NE 6.9mph /  11.1km/h 12mph /  19.3km/h 64.5% 0in /  0.0mm
22:29 79.3 °F /  26.3 °C 66.9 °F /  19.4 °C 29.9in /  1011.6hPa NE 6.9mph /  11.1km/h 10.4mph /  16.7km/h 65.9% 0in /  0.0mm
22:34 79.2 °F /  26.2 °C 67.3 °F /  19.6 °C 29.9in /  1012.0hPa NE 6.9mph /  11.1km/h 13.5mph /  21.7km/h 66.9% 0in /  0.0mm
22:39 79.2 °F /  26.2 °C 67.3 °F /  19.6 °C 29.9in /  1012.0hPa NE 7.3mph /  11.8km/h 14mph /  22.5km/h 67% 0in /  0.0mm
22:44 79 °F /  26.1 °C 67.1 °F /  19.5 °C 29.9in /  1012.0hPa NE 8.1mph /  13km/h 12mph /  19.3km/h 67% 0in /  0.0mm
22:49 79 °F /  26.1 °C 67.3 °F /  19.6 °C 29.9in /  1012.2hPa NE 7.5mph /  12km/h 10.4mph /  16.7km/h 67.5% 0in /  0.0mm
22:54 79 °F /  26.1 °C 67.5 °F /  19.7 °C 29.9in /  1012.2hPa NE 6.4mph /  10.3km/h 10mph /  16.1km/h 68% 0in /  0.0mm
22:59 78.8 °F /  26 °C 67.3 °F /  19.6 °C 29.9in /  1012.2hPa NE 6mph /  9.7km/h 9.2mph /  14.8km/h 68% 0in /  0.0mm
23:04 78.8 °F /  26 °C 67.6 °F /  19.8 °C 29.9in /  1012.6hPa NE 5.4mph /  8.7km/h 9mph /  14.5km/h 68.7% 0in /  0.0mm
23:09 78.6 °F /  25.9 °C 67.6 °F /  19.8 °C 29.9in /  1012.6hPa NE 5.2mph /  8.3km/h 9.2mph /  14.8km/h 69% 0in /  0.0mm
23:14 78.6 °F /  25.9 °C 67.8 °F /  19.9 °C 29.9in /  1012.6hPa NE 4.7mph /  7.6km/h 10.4mph /  16.7km/h 69.7% 0in /  0.0mm
23:19 78.4 °F /  25.8 °C 67.8 °F /  19.9 °C 29.9in /  1012.7hPa ENE 4.8mph /  7.8km/h 10mph /  16.1km/h 70% 0in /  0.0mm
23:24 78.4 °F /  25.8 °C 68 °F /  20 °C 29.9in /  1012.7hPa NE 5.2mph /  8.4km/h 9.2mph /  14.8km/h 70.3% 0in /  0.0mm
23:29 78.3 °F /  25.7 °C 68.2 °F /  20.1 °C 29.9in /  1012.7hPa ENE 5mph /  8.1km/h 9.2mph /  14.8km/h 71% 0in /  0.0mm
23:34 78.3 °F /  25.7 °C 68.2 °F /  20.1 °C 29.9in /  1012.9hPa ENE 4.7mph /  7.6km/h 8mph /  12.9km/h 71% 0in /  0.0mm
23:39 78.3 °F /  25.7 °C 68.4 °F /  20.2 °C 29.9in /  1012.9hPa ENE 4.3mph /  7km/h 7mph /  11.3km/h 71.8% 0in /  0.0mm
23:44 78.1 °F /  25.6 °C 68.5 °F /  20.3 °C 29.9in /  1012.9hPa NE 3.6mph /  5.8km/h 7mph /  11.3km/h 72.6% 0in /  0.0mm
23:49 78.1 °F /  25.6 °C 68.7 °F /  20.4 °C 29.9in /  1012.9hPa ENE 3.6mph /  5.8km/h 7mph /  11.3km/h 73% 0in /  0.0mm
23:54 77.9 °F /  25.5 °C 68.7 °F /  20.4 °C 29.9in /  1012.8hPa NE 3.6mph /  5.8km/h 6mph /  9.7km/h 73.7% 0in /  0.0mm
23:59 77.9 °F /  25.5 °C 68.9 °F /  20.5 °C 29.9in /  1012.8hPa NE 3.6mph /  5.8km/h 6mph /  9.7km/h 74% 0in /  0.0mm
Murcia-Puente Tocinos, España
Compliments of Weather Underground - 3 mb

La estación de MeteoMurcia.com, publica sus datos en los siguientes proyectos:

Weather Underground PWS IMURCIAP2 Meteoclimatic www.awekas.at

W3Counter
Web Analytics